Time;durP1;ratioP1;P1;durP2;ratioP2;P2;SDS_P1;SDS_P2;PMS_P1;PMS_P2;Temp;Humidity;BMP_temperature;BMP_pressure;BME280_temperature;BME280_humidity;BME280_pressure;Samples;Min_cycle;Max_cycle;Signal;HPM_P1;HPM_P2
2022/10/08 00:01:04;;;;;;;10.20;3.17;;;;;;;11.65;80.49;101576.75;5066295;28;20034;-80
2022/10/08 00:03:32;;;;;;;15.18;3.58;;;;;;;11.63;80.95;101580.47;5071779;28;20032;-81
2022/10/08 00:06:00;;;;;;;15.60;3.30;;;;;;;11.61;80.79;101569.09;5073121;28;20500;-80
2022/10/08 00:08:28;;;;;;;16.52;3.67;;;;;;;11.61;80.83;101567.28;5069770;28;20423;-80
2022/10/08 00:10:55;;;;;;;13.88;3.47;;;;;;;11.61;80.70;101569.94;5068670;28;20024;-80
2022/10/08 00:13:22;;;;;;;11.85;3.03;;;;;;;11.60;80.89;101573.56;5065588;28;20051;-81
2022/10/08 00:15:48;;;;;;;14.98;3.97;;;;;;;11.60;81.14;101570.88;5066069;28;20031;-81
2022/10/08 00:18:13;;;;;;;13.40;3.38;;;;;;;11.61;81.03;101571.75;5072545;28;20044;-82
2022/10/08 00:20:38;;;;;;;10.43;3.80;;;;;;;11.62;80.77;101568.13;5075070;28;20067;-80
2022/10/08 00:23:04;;;;;;;16.42;3.42;;;;;;;11.64;81.19;101575.06;5073648;28;20124;-80
2022/10/08 00:25:29;;;;;;;13.32;3.08;;;;;;;11.65;81.29;101570.56;5068663;28;20036;-80
2022/10/08 00:27:54;;;;;;;11.70;3.22;;;;;;;11.66;81.31;101578.47;5072375;28;20471;-80
2022/10/08 00:30:20;;;;;;;13.35;3.38;;;;;;;11.68;81.68;101575.69;5071128;28;20045;-80
2022/10/08 00:32:45;;;;;;;9.82;2.90;;;;;;;11.71;81.32;101571.94;5078018;28;20020;-81
2022/10/08 00:35:10;;;;;;;13.75;3.58;;;;;;;11.70;81.47;101573.75;5070312;28;20089;-80
2022/10/08 00:37:36;;;;;;;12.88;3.15;;;;;;;11.72;81.51;101576.31;5064695;28;20052;-80
2022/10/08 00:40:01;;;;;;;14.38;3.95;;;;;;;11.75;81.75;101565.47;5069686;28;20475;-81
2022/10/08 00:42:26;;;;;;;8.27;3.28;;;;;;;11.75;81.94;101565.47;5080116;28;20095;-81
2022/10/08 00:44:56;;;;;;;12.07;3.80;;;;;;;11.77;81.68;101561.72;5071695;28;20028;-80
2022/10/08 00:47:42;;;;;;;14.02;3.10;;;;;;;11.80;81.29;101566.84;5079709;28;20024;-80
2022/10/08 00:52:51;;;;;;;13.85;3.63;;;;;;;11.80;82.07;101566.00;4822848;22;20577;-51
2022/10/08 00:55:20;;;;;;;12.60;3.20;;;;;;;11.84;81.77;101576.31;5057902;28;20436;-53
2022/10/08 00:57:45;;;;;;;;;;;;;;;11.89;80.67;101584.00;5067182;28;20040;-51
2022/10/08 01:00:18;;;;;;;13.45;3.20;;;;;;;11.82;82.19;101566.72;5062575;28;19931;-50
2022/10/08 01:02:43;;;;;;;15.55;3.10;;;;;;;11.88;82.85;101578.78;5064929;28;20441;-54
2022/10/08 01:05:11;;;;;;;7.88;2.40;;;;;;;11.90;82.95;101590.16;5070691;28;20025;-53
2022/10/08 01:08:05;;;;;;;10.52;2.88;;;;;;;11.93;82.28;101589.97;5062470;28;20043;-54
2022/10/08 01:10:40;;;;;;;18.55;3.85;;;;;;;11.94;82.57;101594.31;5063984;28;20063;-53
2022/10/08 01:13:17;;;;;;;15.65;3.55;;;;;;;11.97;84.02;101602.09;5062734;28;20020;-53
2022/10/08 01:15:56;;;;;;;15.25;3.53;;;;;;;11.98;85.28;101604.66;5075079;28;20496;-53
2022/10/08 01:18:35;;;;;;;11.88;3.20;;;;;;;11.97;85.31;101602.97;5067446;28;20040;-54
2022/10/08 01:21:22;;;;;;;18.30;4.95;;;;;;;11.97;85.97;101602.97;5073866;28;20078;-54
2022/10/08 01:24:08;;;;;;;14.43;3.92;;;;;;;11.94;86.18;101597.88;5074856;28;20111;-54
2022/10/08 01:26:55;;;;;;;13.73;3.45;;;;;;;11.95;86.46;101601.38;5062306;28;20025;-54
2022/10/08 01:29:35;;;;;;;13.05;3.55;;;;;;;11.91;86.65;101595.41;5068346;28;20029;-54
2022/10/08 01:32:12;;;;;;;12.50;3.47;;;;;;;11.87;87.14;101601.03;5074055;28;20428;-54
2022/10/08 01:35:04;;;;;;;9.45;3.30;;;;;;;11.79;87.64;101593.56;5074677;28;20107;-54
2022/10/08 01:37:35;;;;;;;9.38;3.38;;;;;;;11.79;87.85;101596.22;5068063;28;20048;-54
2022/10/08 01:40:06;;;;;;;11.68;3.30;;;;;;;11.78;88.13;101598.03;5068184;28;20033;-52
2022/10/08 01:42:35;;;;;;;13.10;3.20;;;;;;;11.78;88.70;101595.38;5070203;28;20033;-52
2022/10/08 01:45:04;;;;;;;13.32;3.92;;;;;;;11.77;88.48;101592.81;5064435;28;20037;-52
2022/10/08 01:47:31;;;;;;;9.55;2.58;;;;;;;11.76;88.21;101604.44;5073319;28;20032;-53
2022/10/08 01:50:14;;;;;;;12.38;3.15;;;;;;;11.73;88.75;101589.53;5068937;28;20032;-53
2022/10/08 01:52:46;;;;;;;13.20;3.65;;;;;;;11.74;88.14;101603.66;5055621;28;20494;-53
2022/10/08 01:55:16;;;;;;;8.10;2.63;;;;;;;11.71;88.29;101606.53;5054507;28;20064;-54
2022/10/08 01:57:44;;;;;;;11.45;3.13;;;;;;;11.70;88.73;101619.00;5047239;28;20390;-53
2022/10/08 02:00:12;;;;;;;9.18;3.10;;;;;;;11.66;89.21;101621.03;5051577;28;20033;-54
2022/10/08 02:02:38;;;;;;;6.00;2.70;;;;;;;11.66;89.32;101621.03;5051291;28;20031;-53
2022/10/08 02:05:05;;;;;;;12.52;3.35;;;;;;;11.63;89.49;101617.72;5053626;28;20063;-53
2022/10/08 02:07:34;;;;;;;11.10;3.08;;;;;;;11.61;89.78;101619.66;5053716;28;20033;-54
2022/10/08 02:10:09;;;;;;;11.18;3.30;;;;;;;11.57;89.94;101611.00;5053385;28;20068;-54
2022/10/08 02:12:35;;;;;;;6.90;2.60;;;;;;;11.59;89.89;101613.56;5045398;28;20449;-55
2022/10/08 02:15:03;;;;;;;12.63;2.65;;;;;;;11.57;90.65;101615.47;5046688;28;20495;-55
2022/10/08 02:17:35;;;;;;;7.57;2.13;;;;;;;11.53;90.02;101611.34;5053829;28;20017;-55
2022/10/08 02:20:13;;;;;;;6.32;2.35;;;;;;;11.52;90.67;101617.63;5053351;28;20037;-55
2022/10/08 02:22:46;;;;;;;11.75;2.80;;;;;;;11.51;90.36;101611.44;5053906;28;20112;-55
2022/10/08 02:25:59;;;;;;;14.20;2.90;;;;;;;11.54;89.54;101615.69;5053253;28;20021;-56
2022/10/08 02:28:52;;;;;;;8.57;2.15;;;;;;;11.49;91.00;101618.69;5048530;28;20048;-55
2022/10/08 02:31:25;;;;;;;10.82;2.38;;;;;;;11.45;90.47;101622.50;5053342;28;20152;-55
2022/10/08 02:33:58;;;;;;;11.10;2.42;;;;;;;11.46;90.88;101624.22;5053205;28;20112;-55
2022/10/08 02:36:33;;;;;;;9.68;2.40;;;;;;;11.42;91.26;101631.56;5043529;28;20087;-55
2022/10/08 02:39:05;;;;;;;8.15;2.53;;;;;;;11.39;91.17;101631.75;5053258;28;21491;-55
2022/10/08 02:41:39;;;;;;;5.95;1.80;;;;;;;11.37;90.79;101624.81;5053423;28;20041;-56
2022/10/08 02:44:21;;;;;;;7.25;2.63;;;;;;;11.37;91.33;101624.81;5052545;28;20032;-55
2022/10/08 02:46:51;;;;;;;7.18;2.30;;;;;;;11.31;91.37;101623.44;5051407;28;20036;-54
2022/10/08 02:49:30;;;;;;;9.00;2.35;;;;;;;11.24;92.05;101611.50;5050861;28;20072;-55
2022/10/08 02:51:57;;;;;;;;;;;;;;;11.39;89.39;101614.94;5047953;28;20426;-55
2022/10/08 02:54:22;;;;;;;10.77;2.40;;;;;;;11.28;91.27;101618.31;5053302;28;20831;-55
2022/10/08 02:57:00;;;;;;;11.23;2.55;;;;;;;11.26;91.26;101613.09;5053737;28;20056;-55
2022/10/08 02:59:26;;;;;;;7.63;2.25;;;;;;;11.23;91.71;101617.78;5052753;28;20033;-55
2022/10/08 03:01:59;;;;;;;3.97;1.95;;;;;;;11.23;92.23;101615.13;5052866;28;20500;-55
2022/10/08 03:04:35;;;;;;;11.75;2.13;;;;;;;11.19;92.15;101616.25;5053382;28;20057;-56
2022/10/08 03:07:01;;;;;;;6.30;2.03;;;;;;;11.17;92.32;101610.22;5051626;28;20035;-55
2022/10/08 03:09:32;;;;;;;8.85;2.38;;;;;;;11.14;92.63;101618.38;5052876;28;20033;-55
2022/10/08 03:11:59;;;;;;;9.32;2.83;;;;;;;11.12;92.69;101618.47;5041172;28;20035;-55
2022/10/08 03:14:25;;;;;;;9.75;2.35;;;;;;;11.11;92.64;101622.97;5052942;28;20052;-55
2022/10/08 03:16:51;;;;;;;6.00;2.30;;;;;;;11.09;93.34;101627.53;5050179;28;20029;-56
2022/10/08 03:19:17;;;;;;;8.90;2.50;;;;;;;11.09;93.32;101616.91;5053010;28;20029;-56
2022/10/08 03:21:45;;;;;;;9.20;2.35;;;;;;;11.06;93.50;101625.06;5056029;28;20040;-56
2022/10/08 03:24:12;;;;;;;7.10;2.20;;;;;;;11.09;93.25;101627.53;5052626;28;20032;-55
2022/10/08 03:26:38;;;;;;;5.78;2.35;;;;;;;11.09;93.57;101632.84;5052279;28;20483;-55
2022/10/08 03:29:04;;;;;;;9.57;2.40;;;;;;;11.08;93.80;101631.13;5052159;28;20099;-56
2022/10/08 03:31:30;;;;;;;6.00;2.33;;;;;;;11.09;93.61;101631.97;5039581;28;20398;-56
2022/10/08 03:33:56;;;;;;;6.90;2.28;;;;;;;11.09;93.68;101637.28;5046449;28;20021;-56
2022/10/08 03:36:23;;;;;;;7.97;2.42;;;;;;;11.07;93.76;101647.19;5051465;28;20028;-56
2022/10/08 03:38:49;;;;;;;9.05;2.53;;;;;;;11.06;93.89;101650.81;5052304;28;20040;-56
2022/10/08 03:41:15;;;;;;;11.65;3.63;;;;;;;11.07;94.42;101648.06;5052301;28;20025;-55
2022/10/08 03:43:40;;;;;;;6.10;2.75;;;;;;;11.06;94.49;101658.78;5052423;28;20040;-55
2022/10/08 03:46:07;;;;;;;6.32;2.10;;;;;;;11.04;94.67;101650.03;5052727;28;20033;-56
2022/10/08 03:48:32;;;;;;;11.93;3.22;;;;;;;11.02;94.64;101662.59;5051499;28;20044;-56
2022/10/08 03:51:01;;;;;;;9.88;2.25;;;;;;;10.98;94.41;101661.09;5052016;28;20049;-56
2022/10/08 03:53:27;;;;;;;8.20;2.65;;;;;;;10.98;94.51;101667.25;5052147;28;20040;-55
2022/10/08 03:55:53;;;;;;;5.57;2.42;;;;;;;10.96;94.48;101658.53;5052242;28;20111;-56
2022/10/08 03:58:19;;;;;;;3.83;2.13;;;;;;;10.93;94.31;101664.88;5060770;28;20086;-56
2022/10/08 04:01:05;;;;;;;5.78;2.80;;;;;;;10.93;94.67;101664.03;5050717;28;20064;-56
2022/10/08 04:03:31;;;;;;;4.97;2.53;;;;;;;10.87;94.93;101669.75;5051932;28;20434;-55
2022/10/08 04:05:57;;;;;;;9.60;3.25;;;;;;;10.82;94.99;101664.72;5048125;28;20029;-56
2022/10/08 04:08:23;;;;;;;8.02;2.50;;;;;;;10.82;95.15;101667.38;5051147;28;20024;-55
2022/10/08 04:10:48;;;;;;;8.82;2.90;;;;;;;10.79;94.99;101667.59;5052181;28;20111;-56
2022/10/08 04:13:15;;;;;;;8.00;3.15;;;;;;;10.73;95.36;101662.69;5051578;28;20060;-56
2022/10/08 04:15:41;;;;;;;8.73;3.58;;;;;;;10.75;96.09;101668.75;5051690;28;20045;-55
2022/10/08 04:18:07;;;;;;;7.72;4.32;;;;;;;10.74;96.53;101665.25;5051493;28;20021;-54
2022/10/08 04:20:33;;;;;;;10.20;5.03;;;;;;;10.74;96.76;101675.00;5052031;28;20372;-55
2022/10/08 04:22:58;;;;;;;9.32;6.28;;;;;;;10.74;97.11;101672.34;5051079;28;20025;-55
2022/10/08 04:25:23;;;;;;;14.82;8.18;;;;;;;10.74;97.73;101678.53;5051901;28;20033;-55
2022/10/08 04:27:49;;;;;;;12.98;9.45;;;;;;;10.73;98.07;101674.16;5051589;28;20494;-55
2022/10/08 04:30:15;;;;;;;16.65;10.68;;;;;;;10.74;98.92;101672.34;5052162;28;20025;-55
2022/10/08 04:32:41;;;;;;;15.05;11.13;;;;;;;10.74;98.74;101677.66;5048432;28;20108;-55
2022/10/08 04:35:06;;;;;;;18.92;12.63;;;;;;;10.74;98.80;101683.84;5051753;28;20159;-55
2022/10/08 04:37:32;;;;;;;18.55;13.68;;;;;;;10.77;99.58;101684.59;5051273;28;20060;-55
2022/10/08 04:39:58;;;;;;;20.55;15.52;;;;;;;10.78;99.79;101683.66;5051385;28;20040;-56
2022/10/08 04:42:23;;;;;;;27.23;17.75;;;;;;;10.80;100.00;101689.72;5051338;28;20071;-55
2022/10/08 04:44:48;;;;;;;27.73;19.88;;;;;;;10.82;100.00;101693.97;5051602;28;20031;-56
2022/10/08 04:47:14;;;;;;;29.65;21.30;;;;;;;10.84;100.00;101697.41;5052502;28;20048;-56
2022/10/08 04:49:39;;;;;;;32.03;21.58;;;;;;;10.85;100.00;101699.06;5055808;28;20430;-56
2022/10/08 04:52:04;;;;;;;34.55;25.00;;;;;;;10.88;100.00;101700.69;5055101;28;20044;-56
2022/10/08 04:54:29;;;;;;;36.70;24.38;;;;;;;10.89;100.00;101713.03;5048250;28;20497;-56
2022/10/08 04:56:55;;;;;;;36.80;25.38;;;;;;;10.91;100.00;101719.97;5055289;28;20461;-56
2022/10/08 04:59:20;;;;;;;33.33;25.45;;;;;;;10.93;100.00;101717.19;5055445;28;20028;-56
2022/10/08 05:01:45;;;;;;;34.63;26.77;;;;;;;10.93;100.00;101720.72;5055251;28;20029;-56
2022/10/08 05:04:10;;;;;;;37.90;26.50;;;;;;;10.96;100.00;101721.44;5048912;28;20334;-56
2022/10/08 05:06:36;;;;;;;39.05;26.10;;;;;;;10.97;100.00;101725.84;5052224;28;20493;-56
2022/10/08 05:09:02;;;;;;;38.65;26.60;;;;;;;10.97;100.00;101728.50;5055341;28;20043;-56
2022/10/08 05:11:28;;;;;;;41.13;29.50;;;;;;;11.00;100.00;101729.13;5052272;28;20060;-56
2022/10/08 05:13:55;;;;;;;46.33;30.52;;;;;;;11.02;100.00;101727.22;5045897;28;20063;-56
2022/10/08 05:16:22;;;;;;;41.55;29.83;;;;;;;11.03;100.00;101731.59;5054617;28;20055;-55
2022/10/08 05:18:49;;;;;;;50.08;32.83;;;;;;;11.04;100.00;101730.66;5055039;28;20071;-55
2022/10/08 05:21:20;;;;;;;45.10;31.00;;;;;;;11.04;100.00;101735.97;5054328;28;20033;-55
2022/10/08 05:23:45;;;;;;;46.58;30.52;;;;;;;11.04;100.00;101735.97;5055415;28;20426;-56
2022/10/08 05:26:23;;;;;;;46.63;31.95;;;;;;;11.05;100.00;101734.16;5054744;28;20029;-55
2022/10/08 05:28:53;;;;;;;46.85;32.85;;;;;;;11.03;100.00;101730.75;5054991;28;20028;-55
2022/10/08 05:31:18;;;;;;;45.67;33.17;;;;;;;11.05;100.00;101736.81;5052619;28;20501;-54
2022/10/08 05:33:43;;;;;;;45.33;31.92;;;;;;;11.04;100.00;101743.09;5054519;28;20033;-55
2022/10/08 05:36:22;;;;;;;47.22;31.35;;;;;;;11.05;100.00;101744.81;5054885;28;20024;-56
2022/10/08 05:38:48;;;;;;;52.65;31.85;;;;;;;11.04;100.00;101737.75;5054541;28;20086;-56
2022/10/08 05:41:29;;;;;;;45.67;31.50;;;;;;;11.01;100.00;101745.97;5054565;28;20445;-56
2022/10/08 05:43:56;;;;;;;48.35;31.52;;;;;;;11.02;100.00;101752.97;5053130;28;20025;-55
2022/10/08 05:46:26;;;;;;;44.17;31.83;;;;;;;11.03;100.00;101746.72;5054717;28;20045;-54
2022/10/08 05:48:55;;;;;;;53.10;33.58;;;;;;;11.02;100.00;101759.13;5053917;28;20025;-55
2022/10/08 05:51:21;;;;;;;49.78;33.88;;;;;;;11.03;100.00;101765.31;5052888;28;20092;-56
2022/10/08 05:53:49;;;;;;;50.95;32.90;;;;;;;10.95;100.00;101756.97;5054084;28;20510;-55
2022/10/08 05:56:17;;;;;;;50.03;33.58;;;;;;;11.00;100.00;101770.81;5054780;28;20032;-55
2022/10/08 05:58:43;;;;;;;49.03;31.60;;;;;;;10.99;100.00;101769.09;5053124;28;20028;-56
2022/10/08 06:01:13;;;;;;;50.78;33.83;;;;;;;10.98;100.00;101778.06;5052060;28;20287;-55
2022/10/08 06:03:38;;;;;;;51.53;34.95;;;;;;;10.98;100.00;101778.91;5054161;28;20052;-56
2022/10/08 06:06:06;;;;;;;54.03;34.28;;;;;;;10.97;100.00;101784.31;5054665;28;20075;-55
2022/10/08 06:08:33;;;;;;;48.03;32.70;;;;;;;10.94;100.00;101788.00;5051410;28;20021;-55
2022/10/08 06:10:59;;;;;;;46.58;31.25;;;;;;;10.93;100.00;101791.63;5052395;28;20032;-55
2022/10/08 06:13:25;;;;;;;48.95;32.85;;;;;;;10.90;100.00;101787.34;5051923;28;20025;-53
2022/10/08 06:16:19;;;;;;;51.33;33.30;;;;;;;10.94;100.00;101795.97;5053996;28;20064;-53
2022/10/08 06:18:45;;;;;;;50.65;33.22;;;;;;;10.89;100.00;101800.72;5029924;28;20033;-50
2022/10/08 06:21:13;;;;;;;50.90;32.55;;;;;;;10.84;100.00;101803.69;5053158;28;20021;-53
2022/10/08 06:23:43;;;;;;;45.38;32.00;;;;;;;10.86;100.00;101815.09;5053780;28;20462;-53
2022/10/08 06:26:09;;;;;;;51.20;31.25;;;;;;;10.86;100.00;101816.91;5052773;28;20426;-52
2022/10/08 06:28:36;;;;;;;47.13;32.28;;;;;;;10.86;100.00;101814.22;5048264;28;20079;-53
2022/10/08 06:31:01;;;;;;;45.60;31.58;;;;;;;10.86;100.00;101817.75;5050546;28;20035;-53
2022/10/08 06:33:27;;;;;;;46.80;31.90;;;;;;;10.86;100.00;101816.91;5049633;28;20037;-53
2022/10/08 06:35:53;;;;;;;45.50;32.00;;;;;;;10.85;100.00;101820.50;5052009;28;20036;-53
2022/10/08 06:38:19;;;;;;;48.83;32.03;;;;;;;10.85;100.00;101829.31;5048677;28;20135;-53
2022/10/08 06:40:44;;;;;;;46.83;31.02;;;;;;;10.86;100.00;101827.53;5050265;28;20041;-53
2022/10/08 06:43:17;;;;;;;41.95;30.55;;;;;;;10.87;100.00;101837.19;5048668;28;20132;-53
2022/10/08 06:45:44;;;;;;;47.10;30.70;;;;;;;10.87;100.00;101850.47;5049583;28;20062;-52
2022/10/08 06:48:09;;;;;;;43.85;29.02;;;;;;;10.88;100.00;101853.03;5050699;28;20490;-53
2022/10/08 06:50:35;;;;;;;48.47;29.67;;;;;;;10.91;100.00;101858.16;5045999;28;20033;-54
2022/10/08 06:53:02;;;;;;;43.60;29.65;;;;;;;10.95;100.00;101858.00;5050488;28;20041;-54
2022/10/08 06:55:28;;;;;;;40.88;28.67;;;;;;;10.97;100.00;101864.91;5049251;28;20028;-53
2022/10/08 06:57:53;;;;;;;45.67;28.65;;;;;;;10.95;100.00;101864.16;5049644;28;20040;-53
2022/10/08 07:00:19;;;;;;;39.15;27.55;;;;;;;11.01;100.00;101878.88;5048036;28;20033;-54
2022/10/08 07:02:44;;;;;;;37.80;26.33;;;;;;;11.04;100.00;101878.66;5049000;28;20041;-54
2022/10/08 07:05:09;;;;;;;35.28;24.75;;;;;;;11.06;100.00;101882.09;5050558;28;20478;-54
2022/10/08 07:07:35;;;;;;;34.95;24.60;;;;;;;11.09;100.00;101895.19;5048740;28;20140;-54
2022/10/08 07:10:02;;;;;;;36.08;23.67;;;;;;;11.12;100.00;101902.97;5048570;28;20043;-53
2022/10/08 07:12:27;;;;;;;34.88;22.08;;;;;;;11.13;100.00;101904.69;5048889;28;20031;-53
2022/10/08 07:14:52;;;;;;;31.13;21.08;;;;;;;11.15;100.00;101907.25;5045729;28;20021;-55
2022/10/08 07:17:18;;;;;;;31.73;20.13;;;;;;;11.17;100.00;101913.34;5048211;28;20060;-55
2022/10/08 07:19:43;;;;;;;29.55;19.50;;;;;;;11.12;100.00;101902.97;5049422;28;20037;-54
2022/10/08 07:22:08;;;;;;;29.58;19.90;;;;;;;11.19;100.00;101912.31;5048345;28;20526;-50
2022/10/08 07:24:33;;;;;;;28.70;17.03;;;;;;;11.22;100.00;101913.91;5047907;28;20049;-54
2022/10/08 07:26:59;;;;;;;25.33;17.20;;;;;;;11.24;100.00;101920.84;5047962;28;20284;-54
2022/10/08 07:29:25;;;;;;;25.52;16.02;;;;;;;11.25;100.00;101927.84;5045808;28;20066;-53
2022/10/08 07:31:50;;;;;;;24.77;16.05;;;;;;;11.28;100.00;101924.16;5047912;28;20489;-53
2022/10/08 07:34:16;;;;;;;24.10;15.93;;;;;;;11.28;100.00;101922.34;5048064;28;20048;-53
2022/10/08 07:36:41;;;;;;;27.15;14.32;;;;;;;11.33;100.00;101926.53;5048210;28;20086;-52
2022/10/08 07:39:12;;;;;;;23.73;14.40;;;;;;;11.35;100.00;101930.81;5049020;28;20064;-53
2022/10/08 07:41:38;;;;;;;25.08;13.73;;;;;;;11.39;100.00;101936.78;5048557;28;20490;-53
2022/10/08 07:44:05;;;;;;;23.70;12.35;;;;;;;11.44;100.00;101940.00;5048536;28;20037;-53
2022/10/08 07:46:42;;;;;;;18.35;11.52;;;;;;;11.48;100.00;101953.03;5049084;28;20028;-52
2022/10/08 07:49:07;;;;;;;20.83;10.23;;;;;;;11.51;99.74;101946.66;5047375;28;20036;-53
2022/10/08 07:51:33;;;;;;;22.27;10.07;;;;;;;11.54;99.56;101950.91;5038579;28;20142;-54
2022/10/08 07:54:00;;;;;;;15.60;9.95;;;;;;;11.60;99.85;101947.88;5047843;28;20045;-53
2022/10/08 07:56:26;;;;;;;17.80;8.88;;;;;;;11.68;98.74;101952.72;5046536;28;20041;-53
2022/10/08 07:58:51;;;;;;;16.95;7.93;;;;;;;11.80;98.62;101955.44;5047619;28;20139;-53
2022/10/08 08:01:27;;;;;;;13.23;7.13;;;;;;;11.87;98.10;101958.56;5052702;28;20040;-53
2022/10/08 08:03:56;;;;;;;13.70;5.80;;;;;;;11.96;94.83;101954.50;5045822;28;20049;-53
2022/10/08 08:06:25;;;;;;;16.30;5.75;;;;;;;12.10;95.04;101957.09;5049183;28;20032;-53
2022/10/08 08:08:51;;;;;;;13.93;5.65;;;;;;;12.31;96.44;101962.84;5048444;28;20048;-53
2022/10/08 08:11:19;;;;;;;14.07;5.75;;;;;;;12.46;95.17;101963.63;5043956;28;20033;-53
2022/10/08 08:13:44;;;;;;;13.00;5.20;;;;;;;12.62;92.91;101970.59;5031747;28;20036;-53
2022/10/08 08:16:15;;;;;;;15.25;5.32;;;;;;;12.75;92.47;101971.47;5041076;28;20036;-53
2022/10/08 08:18:42;;;;;;;11.63;4.80;;;;;;;12.89;91.61;101982.06;5051479;28;20071;-54
2022/10/08 08:21:11;;;;;;;15.52;4.70;;;;;;;13.01;89.33;101987.53;5049330;28;20029;-54
2022/10/08 08:23:38;;;;;;;;;;;;;;;13.16;92.27;101990.94;5036665;28;20030;-54
2022/10/08 08:26:15;;;;;;;11.82;4.45;;;;;;;13.33;88.97;101986.16;5034108;28;19909;-54
2022/10/08 08:28:40;;;;;;;13.88;4.82;;;;;;;13.42;86.04;101984.69;5045940;28;20028;-52
2022/10/08 08:31:18;;;;;;;16.70;4.45;;;;;;;13.52;86.67;101992.88;5045489;28;20501;-54
2022/10/08 08:33:49;;;;;;;10.25;4.68;;;;;;;13.69;86.57;102007.72;5046310;28;20309;-55
2022/10/08 08:36:16;;;;;;;10.00;3.97;;;;;;;13.80;85.08;102005.09;5043412;28;20036;-53
2022/10/08 08:38:41;;;;;;;9.43;3.42;;;;;;;13.85;84.97;102013.63;5046849;28;20036;-54
2022/10/08 08:41:35;;;;;;;10.40;4.20;;;;;;;14.01;84.99;102009.88;5046342;28;20021;-53
2022/10/08 08:44:19;;;;;;;13.40;4.07;;;;;;;14.20;83.79;102014.72;5039783;28;20314;-53
2022/10/08 08:47:07;;;;;;;12.23;3.22;;;;;;;14.35;82.83;102021.59;5046599;28;20032;-54
2022/10/08 08:49:46;;;;;;;11.40;2.95;;;;;;;14.44;80.68;102023.59;5044859;28;20522;-53
2022/10/08 08:52:13;;;;;;;;;;;;;;;14.58;84.03;102025.22;5047354;28;20040;-53
2022/10/08 08:54:39;;;;;;;10.40;2.60;;;;;;;14.66;77.69;102021.19;5050915;28;19924;-53
2022/10/08 08:57:29;;;;;;;11.05;2.67;;;;;;;14.77;78.70;102023.88;5048076;28;20020;-53
2022/10/08 09:00:03;;;;;;;9.80;2.63;;;;;;;14.85;75.27;102025.97;5047294;28;20025;-54
2022/10/08 09:02:34;;;;;;;6.82;2.40;;;;;;;14.96;76.38;102031.38;5046044;28;20056;-55
2022/10/08 09:05:04;;;;;;;9.82;2.45;;;;;;;15.04;75.15;102031.66;5047215;28;20401;-54
2022/10/08 09:07:40;;;;;;;12.00;2.40;;;;;;;15.22;75.22;102032.06;5044736;28;20033;-54
2022/10/08 09:10:08;;;;;;;10.68;2.80;;;;;;;15.31;74.10;102025.97;5039025;28;20017;-48
2022/10/08 09:12:42;;;;;;;8.55;2.05;;;;;;;15.44;74.19;102033.91;5033010;28;20022;-51
2022/10/08 09:15:22;;;;;;;7.43;1.70;;;;;;;15.43;69.33;102042.91;5052422;28;20037;-49
2022/10/08 09:17:51;;;;;;;9.40;1.75;;;;;;;15.36;67.88;102039.00;5048423;28;20450;-48
2022/10/08 09:20:18;;;;;;;8.88;1.52;;;;;;;15.47;67.84;102051.53;5055174;28;20106;-49
2022/10/08 09:22:44;;;;;;;9.15;1.90;;;;;;;15.49;67.40;102052.28;5055801;28;20395;-50
2022/10/08 09:25:19;;;;;;;8.68;1.70;;;;;;;15.48;68.05;102050.56;5052401;28;20040;-50
2022/10/08 09:27:54;;;;;;;6.05;1.75;;;;;;;15.65;68.43;102062.63;5054752;28;20048;-49
2022/10/08 09:30:28;;;;;;;9.35;2.10;;;;;;;15.95;67.98;102063.88;5056502;28;20411;-49
2022/10/08 09:32:55;;;;;;;5.55;1.65;;;;;;;15.88;66.28;102063.53;5052852;28;20067;-53
2022/10/08 09:35:21;;;;;;;9.15;1.80;;;;;;;15.85;66.24;102069.13;5052364;28;20037;-52
2022/10/08 09:37:48;;;;;;;6.85;1.60;;;;;;;16.04;64.75;102066.69;5052927;28;20078;-54
2022/10/08 09:40:25;;;;;;;7.70;1.58;;;;;;;16.11;67.53;102069.72;5053375;28;20017;-51
2022/10/08 09:53:00;;;;;;;7.18;1.80;;;;;;;16.57;62.36;102090.09;5130378;22;20485;-80
2022/10/08 09:55:34;;;;;;;6.78;1.83;;;;;;;16.58;62.61;102094.47;5127133;28;20020;-79
2022/10/08 09:58:00;;;;;;;7.25;1.65;;;;;;;16.59;62.68;102098.88;5121670;28;20088;-77
2022/10/08 10:00:30;;;;;;;4.80;1.33;;;;;;;16.69;62.51;102100.81;5128879;28;20026;-78
2022/10/08 10:02:57;;;;;;;8.35;1.90;;;;;;;16.67;61.47;102102.75;5129391;28;20073;-77
2022/10/08 10:05:28;;;;;;;7.70;1.60;;;;;;;16.65;61.70;102103.75;5112713;28;20201;-78
2022/10/08 10:07:54;;;;;;;8.60;2.22;;;;;;;16.62;58.59;102103.13;5115368;28;20035;-78
2022/10/08 10:10:37;;;;;;;6.80;1.60;;;;;;;16.58;60.13;102115.94;5106381;27;20351;-77
2022/10/08 10:13:10;;;;;;;4.68;1.42;;;;;;;16.55;58.90;102107.28;5112125;28;20411;-78
2022/10/08 10:15:59;;;;;;;4.32;1.60;;;;;;;16.69;59.36;102112.38;5115645;27;20036;-77
2022/10/08 10:18:30;;;;;;;3.85;1.30;;;;;;;16.87;58.72;102103.81;5113470;27;20048;-78
2022/10/08 10:21:04;;;;;;;7.28;1.60;;;;;;;17.05;59.01;102104.94;5105940;28;20127;-78
2022/10/08 10:23:40;;;;;;;8.32;1.75;;;;;;;17.16;59.31;102109.41;5111568;28;20030;-78
2022/10/08 10:26:11;;;;;;;5.97;1.70;;;;;;;17.44;59.39;102102.56;5114864;28;20107;-78
2022/10/08 10:28:56;;;;;;;5.20;1.48;;;;;;;17.61;60.33;102116.38;5106109;28;20031;-77
2022/10/08 10:32:04;;;;;;;5.20;1.50;;;;;;;17.61;57.90;102119.06;5115111;27;20093;-78
2022/10/08 10:34:34;;;;;;;5.07;1.55;;;;;;;17.54;55.90;102124.94;5113226;28;20040;-78
2022/10/08 10:37:03;;;;;;;5.72;1.45;;;;;;;17.49;54.03;102121.81;5115809;28;20024;-76
2022/10/08 10:39:54;;;;;;;5.45;1.20;;;;;;;17.70;56.97;102112.88;5107283;28;20126;-76
2022/10/08 10:42:42;;;;;;;4.65;1.23;;;;;;;17.74;54.93;102130.44;5117288;28;20465;-76
2022/10/08 10:45:18;;;;;;;7.70;1.50;;;;;;;17.79;54.39;102119.28;5110837;28;20032;-76
2022/10/08 10:47:44;;;;;;;4.95;1.20;;;;;;;17.84;53.56;102134.03;5116542;28;20034;-78
2022/10/08 10:50:14;;;;;;;8.00;1.38;;;;;;;17.96;52.97;102117.84;5124843;28;20051;-77
2022/10/08 10:52:54;;;;;;;7.38;1.52;;;;;;;17.93;54.06;102129.69;5132525;28;20051;-76
2022/10/08 10:55:22;;;;;;;7.32;1.48;;;;;;;17.96;50.80;102125.91;5129870;28;20031;-76
2022/10/08 10:58:10;;;;;;;9.00;1.60;;;;;;;17.98;52.21;102134.69;5121571;28;20057;-77
2022/10/08 11:00:47;;;;;;;6.65;1.70;;;;;;;18.14;53.57;102132.34;5128451;28;20077;-80
2022/10/08 11:03:33;;;;;;;9.20;2.10;;;;;;;18.29;53.65;102122.91;5108074;28;20339;-78
2022/10/08 11:06:24;;;;;;;6.38;1.50;;;;;;;18.62;55.06;102126.25;5123851;28;20034;-78
2022/10/08 11:09:04;;;;;;;5.22;1.67;;;;;;;18.67;53.24;102124.00;5114724;28;20028;-77
2022/10/08 11:11:55;;;;;;;6.28;1.45;;;;;;;18.77;52.99;102128.50;5104638;28;20023;-78
2022/10/08 11:14:27;;;;;;;9.68;1.42;;;;;;;18.75;50.69;102131.38;5113073;28;20027;-78
2022/10/08 11:17:07;;;;;;;7.82;1.58;;;;;;;18.81;51.03;102132.66;5119663;28;20034;-79
2022/10/08 11:19:50;;;;;;;4.90;1.42;;;;;;;18.90;51.33;102134.53;5130392;28;20016;-80
2022/10/08 11:22:29;;;;;;;5.30;1.45;;;;;;;18.97;50.24;102129.44;5129210;28;20115;-79
2022/10/08 11:25:18;;;;;;;;;;;;;;;19.10;53.84;102129.13;5104231;28;20028;-79
2022/10/08 11:27:52;;;;;;;;;;;;;;;19.01;51.76;102136.22;5117628;28;19907;-79
2022/10/08 11:30:35;;;;;;;9.70;1.98;;;;;;;18.47;49.67;102133.88;5112157;28;20360;-79
2022/10/08 11:33:02;;;;;;;8.35;1.80;;;;;;;18.41;50.58;102149.72;5113947;28;20465;-78
2022/10/08 11:35:39;;;;;;;3.83;1.15;;;;;;;18.22;51.47;102162.09;5097352;28;20093;-78
2022/10/08 11:38:13;;;;;;;4.55;1.20;;;;;;;18.11;51.71;102163.03;5109990;28;20063;-78
2022/10/08 11:40:43;;;;;;;6.95;1.65;;;;;;;18.03;51.30;102160.16;5109270;28;20058;-77
2022/10/08 11:43:08;;;;;;;5.35;1.23;;;;;;;17.99;48.46;102160.59;5113296;28;20032;-78
2022/10/08 11:45:39;;;;;;;5.53;1.40;;;;;;;17.94;51.04;102164.53;5114651;28;20334;-78